createdAt,value
2019-01-31T00:04:20.947Z,7.87
2019-01-31T00:09:28.552Z,7.70
2019-01-31T00:14:03.399Z,7.53
2019-01-31T00:18:36.579Z,7.17
2019-01-31T00:23:31.827Z,7.37
2019-01-31T00:27:47.275Z,7.43
2019-01-31T00:32:14.305Z,7.70
2019-01-31T00:36:57.064Z,7.33
2019-01-31T00:41:58.167Z,8.33
2019-01-31T00:46:46.636Z,6.87
2019-01-31T00:50:54.449Z,7.73
2019-01-31T00:55:07.014Z,7.67
2019-01-31T00:59:46.217Z,7.43
2019-01-31T01:04:28.071Z,7.80
2019-01-31T01:09:07.822Z,7.53
2019-01-31T01:13:44.507Z,8.50
2019-01-31T01:18:08.796Z,9.43
2019-01-31T01:23:00.724Z,10.17
2019-01-31T01:27:25.735Z,9.50
2019-01-31T01:32:01.299Z,11.60
2019-01-31T01:36:33.480Z,10.40
2019-01-31T01:41:13.093Z,10.10
2019-01-31T01:45:53.406Z,10.73
2019-01-31T01:50:36.516Z,9.67
2019-01-31T01:55:19.072Z,9.10
2019-01-31T01:59:42.961Z,7.67
2019-01-31T02:04:12.286Z,8.17
2019-01-31T02:08:51.423Z,8.37
2019-01-31T02:13:26.069Z,8.70
2019-01-31T02:18:00.291Z,9.83
2019-01-31T02:22:17.292Z,9.63
2019-01-31T02:27:06.602Z,9.77
2019-01-31T02:31:37.045Z,8.77
2019-01-31T02:36:12.941Z,8.53
2019-01-31T02:40:29.602Z,9.80
2019-01-31T02:44:59.668Z,9.97
2019-01-31T02:49:39.938Z,10.23
2019-01-31T02:54:38.444Z,9.83
2019-01-31T02:58:59.455Z,10.13
2019-01-31T03:03:34.276Z,10.57
2019-01-31T03:08:13.464Z,9.80
2019-01-31T03:12:26.118Z,11.07
2019-01-31T03:16:56.929Z,11.00
2019-01-31T03:21:35.202Z,9.70
2019-01-31T03:26:06.023Z,8.87
2019-01-31T03:31:05.739Z,8.77
2019-01-31T03:35:35.353Z,9.37
2019-01-31T03:40:08.182Z,11.10
2019-01-31T03:45:05.623Z,11.40
2019-01-31T03:49:42.567Z,10.10
2019-01-31T03:54:28.429Z,12.70
2019-01-31T03:59:01.494Z,12.17
2019-01-31T04:03:24.903Z,13.90
2019-01-31T04:07:27.596Z,14.47
2019-01-31T04:11:30.183Z,15.00
2019-01-31T04:15:33.076Z,13.73
2019-01-31T04:19:35.662Z,12.70
2019-01-31T04:23:38.168Z,13.03
2019-01-31T04:27:40.726Z,12.60
2019-01-31T04:31:43.179Z,10.73
2019-01-31T04:35:45.660Z,10.33
2019-01-31T04:39:48.432Z,10.37
2019-01-31T04:43:50.917Z,12.07
2019-01-31T04:47:56.251Z,11.77
2019-01-31T04:51:57.706Z,11.27
2019-01-31T04:56:00.307Z,12.83
2019-01-31T05:00:03.014Z,12.87
2019-01-31T05:04:06.941Z,13.67
2019-01-31T05:08:09.485Z,13.07
2019-01-31T05:12:12.066Z,11.90
2019-01-31T05:16:33.225Z,11.43
2019-01-31T05:20:35.792Z,12.43
2019-01-31T05:24:38.383Z,13.03
2019-01-31T05:28:40.867Z,11.97
2019-01-31T05:32:43.313Z,11.73
2019-01-31T05:36:45.729Z,12.17
2019-01-31T05:40:55.295Z,11.73
2019-01-31T05:44:52.307Z,11.20
2019-01-31T05:48:55.982Z,12.30
2019-01-31T05:52:58.428Z,13.00
2019-01-31T05:57:00.968Z,13.37
2019-01-31T06:01:03.433Z,13.80
2019-01-31T06:05:06.507Z,13.07
2019-01-31T06:09:10.304Z,12.37
2019-01-31T06:13:12.924Z,13.57
2019-01-31T06:17:17.362Z,15.00
2019-01-31T06:21:19.988Z,13.93
2019-01-31T06:25:22.598Z,15.40
2019-01-31T06:29:26.485Z,15.33
2019-01-31T06:33:29.215Z,16.63
2019-01-31T06:37:31.764Z,17.10
2019-01-31T06:41:34.521Z,18.23
2019-01-31T06:45:36.959Z,17.30
2019-01-31T06:49:39.495Z,16.67
2019-01-31T06:53:42.190Z,16.27
2019-01-31T06:57:44.882Z,16.60
2019-01-31T07:01:47.522Z,17.10
2019-01-31T07:05:50.052Z,16.73
2019-01-31T07:09:52.703Z,16.43
2019-01-31T07:13:55.160Z,17.93
2019-01-31T07:17:57.978Z,16.43
2019-01-31T07:22:00.613Z,16.93
2019-01-31T07:26:03.206Z,15.97
2019-01-31T07:30:06.984Z,15.37
2019-01-31T07:34:09.512Z,15.77
2019-01-31T07:38:12.090Z,16.37
2019-01-31T07:42:14.759Z,17.70
2019-01-31T07:46:17.246Z,17.53
2019-01-31T07:50:19.870Z,16.53
2019-01-31T07:54:22.360Z,18.40
2019-01-31T07:58:25.121Z,18.73
2019-01-31T08:02:28.843Z,18.67
2019-01-31T08:06:31.290Z,20.13
2019-01-31T08:10:42.391Z,19.73
2019-01-31T08:14:44.923Z,16.17
2019-01-31T08:18:49.152Z,18.13
2019-01-31T08:22:51.579Z,17.33
2019-01-31T08:26:55.999Z,16.07
2019-01-31T08:30:58.759Z,15.57
2019-01-31T08:35:01.489Z,16.37
2019-01-31T08:39:05.062Z,16.13
2019-01-31T08:43:07.659Z,14.80
2019-01-31T08:47:10.340Z,15.40
2019-01-31T08:51:13.079Z,16.60
2019-01-31T08:55:15.568Z,14.10
2019-01-31T08:59:18.244Z,14.83
2019-01-31T09:03:20.853Z,13.90
2019-01-31T09:07:23.575Z,13.60
2019-01-31T09:11:26.183Z,14.80
2019-01-31T09:15:28.957Z,14.67
2019-01-31T09:19:31.608Z,13.67
2019-01-31T09:24:15.013Z,13.50
2019-01-31T09:28:43.919Z,15.67
2019-01-31T09:33:43.032Z,11.43
2019-01-31T09:38:10.101Z,11.57
2019-01-31T09:42:33.749Z,12.60
2019-01-31T09:47:31.673Z,11.50
2019-01-31T09:51:56.025Z,11.77
2019-01-31T09:56:37.867Z,12.73
2019-01-31T10:01:11.019Z,11.50
2019-01-31T10:05:57.301Z,10.97
2019-01-31T10:10:18.660Z,10.97
2019-01-31T10:14:39.257Z,12.40
2019-01-31T10:19:24.938Z,12.43
2019-01-31T10:24:22.198Z,10.83
2019-01-31T10:29:02.132Z,29.90
2019-01-31T10:33:52.060Z,9.13
2019-01-31T10:38:41.959Z,10.30
2019-01-31T10:43:18.363Z,9.13
2019-01-31T10:47:31.459Z,11.40
2019-01-31T10:52:39.395Z,9.80
2019-01-31T10:57:07.859Z,10.23
2019-01-31T11:01:26.581Z,11.23
2019-01-31T11:06:06.829Z,10.17
2019-01-31T11:10:33.553Z,10.73
2019-01-31T11:15:32.083Z,11.53
2019-01-31T11:20:25.833Z,10.20
2019-01-31T11:25:10.039Z,11.60
2019-01-31T11:29:49.182Z,11.87
2019-01-31T11:34:06.527Z,11.93
2019-01-31T11:38:47.917Z,10.90
2019-01-31T11:43:30.959Z,12.40
2019-01-31T11:47:56.393Z,11.73
2019-01-31T11:52:42.491Z,12.30
2019-01-31T11:57:07.585Z,11.70
2019-01-31T12:01:10.275Z,10.73
2019-01-31T12:05:13.465Z,10.40
2019-01-31T12:09:19.655Z,10.97
2019-01-31T12:13:23.506Z,11.03
2019-01-31T12:17:25.889Z,10.93
2019-01-31T12:21:28.196Z,10.47
2019-01-31T12:25:30.396Z,11.40
2019-01-31T12:29:32.676Z,10.87
2019-01-31T12:33:36.064Z,11.50
2019-01-31T12:37:38.426Z,10.27
2019-01-31T12:41:40.721Z,10.77
2019-01-31T12:45:43.011Z,9.67
2019-01-31T12:49:46.057Z,10.33
2019-01-31T12:53:48.456Z,10.20
2019-01-31T12:57:50.677Z,9.07
2019-01-31T13:01:54.882Z,10.03
2019-01-31T13:05:57.212Z,9.40
2019-01-31T13:09:59.831Z,9.73
2019-01-31T13:14:02.042Z,9.20
2019-01-31T13:18:04.497Z,9.13
2019-01-31T13:22:06.831Z,9.20
2019-01-31T13:26:09.156Z,9.13
2019-01-31T13:30:15.305Z,9.00
2019-01-31T13:34:17.572Z,9.90
2019-01-31T13:38:20.975Z,9.97
2019-01-31T13:42:23.251Z,9.47
2019-01-31T13:46:25.461Z,10.13
2019-01-31T13:50:27.723Z,9.77
2019-01-31T13:54:29.951Z,9.90
2019-01-31T13:58:32.184Z,11.60
2019-01-31T14:02:34.626Z,10.40
2019-01-31T14:06:36.965Z,10.90
2019-01-31T14:10:39.238Z,10.77
2019-01-31T14:14:41.495Z,12.03
2019-01-31T14:18:45.277Z,11.07
2019-01-31T14:22:47.947Z,12.00
2019-01-31T14:26:50.151Z,12.60
2019-01-31T14:30:52.438Z,12.53
2019-01-31T14:34:55.327Z,11.17
2019-01-31T14:38:57.591Z,13.50
2019-01-31T14:43:00.047Z,12.77
2019-01-31T14:47:02.325Z,14.33
2019-01-31T14:51:05.031Z,11.67
2019-01-31T14:55:08.763Z,11.73
2019-01-31T14:59:11.651Z,12.50
2019-01-31T15:03:14.256Z,12.67
2019-01-31T15:07:16.737Z,12.43
2019-01-31T15:11:19.302Z,12.53
2019-01-31T15:15:21.873Z,12.87
2019-01-31T15:19:24.864Z,12.57
2019-01-31T15:23:27.579Z,12.30
2019-01-31T15:27:30.538Z,11.97
2019-01-31T15:31:33.349Z,12.47
2019-01-31T15:35:36.211Z,12.13
2019-01-31T15:39:39.123Z,11.67
2019-01-31T15:43:42.292Z,12.87
2019-01-31T15:47:45.263Z,12.33
2019-01-31T15:51:48.328Z,13.47
2019-01-31T15:55:51.041Z,13.17
2019-01-31T15:59:53.876Z,10.80
2019-01-31T16:03:56.837Z,11.63
2019-01-31T16:07:59.867Z,12.53
2019-01-31T16:12:02.765Z,12.97
2019-01-31T16:16:06.196Z,11.97
2019-01-31T16:20:10.794Z,12.43
2019-01-31T16:24:13.850Z,11.33
2019-01-31T16:28:16.666Z,12.17
2019-01-31T16:32:19.756Z,12.30
2019-01-31T16:36:22.500Z,12.53
2019-01-31T16:40:26.321Z,12.63
2019-01-31T16:44:29.773Z,14.27
2019-01-31T16:48:32.935Z,12.80
2019-01-31T16:52:35.669Z,12.43
2019-01-31T16:56:38.432Z,13.40
2019-01-31T17:00:41.131Z,13.27
2019-01-31T17:04:49.898Z,12.90
2019-01-31T17:08:53.553Z,13.43
2019-01-31T17:12:57.572Z,13.83
2019-01-31T17:17:01.821Z,13.13
2019-01-31T17:21:04.515Z,11.70
2019-01-31T17:25:09.517Z,13.40
2019-01-31T17:29:12.292Z,15.57
2019-01-31T17:33:15.042Z,20.53
2019-01-31T17:37:18.038Z,17.63
2019-01-31T17:41:20.762Z,15.90
2019-01-31T17:45:30.595Z,18.03
2019-01-31T17:49:28.258Z,19.03
2019-01-31T17:53:31.022Z,18.17
2019-01-31T17:57:33.655Z,17.30
2019-01-31T18:01:36.427Z,21.20
2019-01-31T18:05:39.168Z,17.10
2019-01-31T18:09:42.009Z,18.67
2019-01-31T18:13:44.749Z,18.40
2019-01-31T18:17:47.529Z,16.80
2019-01-31T18:21:50.223Z,16.83
2019-01-31T18:25:53.072Z,13.80
2019-01-31T18:29:55.681Z,14.70
2019-01-31T18:33:58.737Z,14.90
2019-01-31T18:38:01.512Z,13.83
2019-01-31T18:42:04.249Z,13.70
2019-01-31T18:46:07.120Z,13.77
2019-01-31T18:50:13.173Z,14.10
2019-01-31T18:54:19.753Z,14.13
2019-01-31T18:58:22.512Z,14.80
2019-01-31T19:02:25.343Z,15.07
2019-01-31T19:06:28.202Z,17.67
2019-01-31T19:10:42.324Z,15.87
2019-01-31T19:14:35.648Z,17.07
2019-01-31T19:18:38.502Z,15.20
2019-01-31T19:22:43.010Z,15.33
2019-01-31T19:26:47.198Z,14.17
2019-01-31T19:30:49.998Z,15.77
2019-01-31T19:34:52.959Z,15.40
2019-01-31T19:38:56.777Z,12.83
2019-01-31T19:43:01.377Z,14.87
2019-01-31T19:47:04.119Z,14.07
2019-01-31T19:51:06.999Z,16.23
2019-01-31T19:55:11.022Z,9.57
2019-01-31T19:59:13.923Z,14.33
2019-01-31T20:03:16.928Z,13.30
2019-01-31T20:07:19.763Z,14.13
2019-01-31T20:11:22.876Z,12.30
2019-01-31T20:15:26.116Z,14.10
2019-01-31T20:19:29.136Z,13.23
2019-01-31T20:23:31.781Z,15.67
2019-01-31T20:27:35.559Z,15.40
2019-01-31T20:31:38.580Z,13.73
2019-01-31T20:35:41.831Z,13.30
2019-01-31T20:39:44.767Z,14.63
2019-01-31T20:43:47.820Z,16.33
2019-01-31T20:47:50.762Z,17.60
2019-01-31T20:51:53.695Z,19.23
2019-01-31T20:55:56.382Z,18.73
2019-01-31T20:59:59.004Z,19.77
2019-01-31T21:04:01.723Z,18.00
2019-01-31T21:08:05.229Z,18.57
2019-01-31T21:12:09.579Z,17.63
2019-01-31T21:16:12.631Z,20.10
2019-01-31T21:20:15.820Z,20.40
2019-01-31T21:24:18.697Z,18.87
2019-01-31T21:28:21.440Z,21.07
2019-01-31T21:32:24.332Z,20.30
2019-01-31T21:36:27.126Z,20.60
2019-01-31T21:40:32.117Z,22.23
2019-01-31T21:44:34.914Z,18.63
2019-01-31T21:48:38.052Z,19.17
2019-01-31T21:52:40.934Z,20.13
2019-01-31T21:56:43.799Z,18.87
2019-01-31T22:00:46.591Z,18.90
2019-01-31T22:04:49.551Z,20.77
2019-01-31T22:08:52.259Z,21.13
2019-01-31T22:12:55.414Z,19.97
2019-01-31T22:16:58.258Z,17.97
2019-01-31T22:21:01.316Z,18.73
2019-01-31T22:25:04.465Z,20.03
2019-01-31T22:29:08.401Z,18.87
2019-01-31T22:33:12.121Z,18.53
2019-01-31T22:37:14.856Z,21.50
2019-01-31T22:41:17.747Z,18.67
2019-01-31T22:45:22.469Z,19.53
2019-01-31T22:49:25.173Z,19.53
2019-01-31T22:53:28.032Z,17.83
2019-01-31T22:57:30.786Z,16.07
2019-01-31T23:01:42.260Z,20.37
2019-01-31T23:05:46.143Z,16.53
2019-01-31T23:09:48.866Z,16.13
2019-01-31T23:13:51.815Z,17.00
2019-01-31T23:17:54.641Z,15.27
2019-01-31T23:21:57.405Z,16.07
2019-01-31T23:26:00.247Z,16.60
2019-01-31T23:30:03.149Z,12.83
2019-01-31T23:34:06.747Z,14.43
2019-01-31T23:38:09.598Z,14.40
2019-01-31T23:42:12.569Z,11.13
2019-01-31T23:46:17.227Z,11.53
2019-01-31T23:50:20.320Z,11.67
2019-01-31T23:54:22.929Z,12.87
2019-01-31T23:58:25.794Z,11.70
